sensor_id;sensor_type;location;lat;lon;timestamp;pressure;altitude;pressure_sealevel;temperature;humidity
31082;BME280;17737;52.586;13.284;2023-05-09T00:01:05;101938.38;;;10.55;54.14
31082;BME280;17737;52.586;13.284;2023-05-09T00:03:38;101941.22;;;10.53;54.46
31082;BME280;17737;52.586;13.284;2023-05-09T00:06:07;101937.38;;;10.56;53.87
31082;BME280;17737;52.586;13.284;2023-05-09T00:08:36;101944.75;;;10.54;54.40
31082;BME280;17737;52.586;13.284;2023-05-09T00:11:04;101945.91;;;10.51;54.55
31082;BME280;17737;52.586;13.284;2023-05-09T00:13:32;101942.47;;;10.49;54.79
31082;BME280;17737;52.586;13.284;2023-05-09T00:16:01;101950.56;;;10.49;54.76
31082;BME280;17737;52.586;13.284;2023-05-09T00:18:31;101945.75;;;10.43;55.18
31082;BME280;17737;52.586;13.284;2023-05-09T00:20:59;101946.41;;;10.36;55.46
31082;BME280;17737;52.586;13.284;2023-05-09T00:23:28;101951.81;;;10.45;55.25
31082;BME280;17737;52.586;13.284;2023-05-09T00:25:56;101951.66;;;10.37;55.80
31082;BME280;17737;52.586;13.284;2023-05-09T00:28:25;101943.75;;;10.45;55.29
31082;BME280;17737;52.586;13.284;2023-05-09T00:30:53;101950.41;;;10.41;55.04
31082;BME280;17737;52.586;13.284;2023-05-09T00:33:21;101949.56;;;10.41;55.10
31082;BME280;17737;52.586;13.284;2023-05-09T00:35:53;101950.38;;;10.32;55.67
31082;BME280;17737;52.586;13.284;2023-05-09T00:38:21;101954.06;;;10.40;54.93
31082;BME280;17737;52.586;13.284;2023-05-09T00:40:50;101955.75;;;10.32;55.64
31082;BME280;17737;52.586;13.284;2023-05-09T00:43:18;101950.38;;;10.32;55.46
31082;BME280;17737;52.586;13.284;2023-05-09T00:45:47;101949.50;;;10.22;55.68
31082;BME280;17737;52.586;13.284;2023-05-09T00:48:16;101949.94;;;10.27;55.63
31082;BME280;17737;52.586;13.284;2023-05-09T00:50:44;101944.44;;;10.28;55.54
31082;BME280;17737;52.586;13.284;2023-05-09T00:53:19;101937.19;;;10.29;55.24
31082;BME280;17737;52.586;13.284;2023-05-09T00:55:47;101938.72;;;10.22;55.38
31082;BME280;17737;52.586;13.284;2023-05-09T00:58:15;101935.94;;;10.33;55.03
31082;BME280;17737;52.586;13.284;2023-05-09T01:00:44;101929.97;;;10.29;54.55
31082;BME280;17737;52.586;13.284;2023-05-09T01:03:13;101928.09;;;10.20;54.60
31082;BME280;17737;52.586;13.284;2023-05-09T01:05:51;101928.66;;;10.24;55.18
31082;BME280;17737;52.586;13.284;2023-05-09T01:08:34;101919.47;;;10.26;54.07
31082;BME280;17737;52.586;13.284;2023-05-09T01:11:14;101921.44;;;10.24;54.96
31082;BME280;17737;52.586;13.284;2023-05-09T01:13:57;101916.16;;;10.13;55.17
31082;BME280;17737;52.586;13.284;2023-05-09T01:16:39;101918.03;;;10.22;54.41
31082;BME280;17737;52.586;13.284;2023-05-09T01:19:26;101917.59;;;10.17;54.74
31082;BME280;17737;52.586;13.284;2023-05-09T01:22:12;101922.81;;;10.09;54.89
31082;BME280;17737;52.586;13.284;2023-05-09T01:25:05;101919.25;;;10.09;54.97
31082;BME280;17737;52.586;13.284;2023-05-09T01:27:48;101920.84;;;10.11;54.80
31082;BME280;17737;52.586;13.284;2023-05-09T01:30:26;101914.28;;;10.04;54.70
31082;BME280;17737;52.586;13.284;2023-05-09T01:32:58;101911.56;;;10.04;54.85
31082;BME280;17737;52.586;13.284;2023-05-09T01:35:29;101901.78;;;10.03;54.45
31082;BME280;17737;52.586;13.284;2023-05-09T01:38:08;101901.50;;;10.06;54.12
31082;BME280;17737;52.586;13.284;2023-05-09T01:40:41;101912.81;;;10.00;54.96
31082;BME280;17737;52.586;13.284;2023-05-09T01:43:11;101903.22;;;10.07;53.96
31082;BME280;17737;52.586;13.284;2023-05-09T01:45:44;101905.81;;;10.09;54.07
31082;BME280;17737;52.586;13.284;2023-05-09T01:48:15;101907.44;;;10.00;54.25
31082;BME280;17737;52.586;13.284;2023-05-09T01:50:46;101903.06;;;9.99;54.16
31082;BME280;17737;52.586;13.284;2023-05-09T01:53:16;101898.66;;;9.98;53.93
31082;BME280;17737;52.586;13.284;2023-05-09T01:55:46;101909.28;;;10.00;54.08
31082;BME280;17737;52.586;13.284;2023-05-09T01:58:16;101905.03;;;9.97;53.35
31082;BME280;17737;52.586;13.284;2023-05-09T02:00:47;101909.25;;;9.90;54.09
31082;BME280;17737;52.586;13.284;2023-05-09T02:03:16;101918.72;;;9.85;53.73
31082;BME280;17737;52.586;13.284;2023-05-09T02:05:46;101911.53;;;9.95;53.54
31082;BME280;17737;52.586;13.284;2023-05-09T02:08:17;101912.22;;;9.87;53.20
31082;BME280;17737;52.586;13.284;2023-05-09T02:10:47;101916.47;;;9.90;52.50
31082;BME280;17737;52.586;13.284;2023-05-09T02:13:16;101908.38;;;9.90;53.13
31082;BME280;17737;52.586;13.284;2023-05-09T02:15:45;101910.06;;;9.81;53.33
31082;BME280;17737;52.586;13.284;2023-05-09T02:18:14;101908.09;;;9.83;52.75
31082;BME280;17737;52.586;13.284;2023-05-09T02:20:42;101903.56;;;9.84;52.81
31082;BME280;17737;52.586;13.284;2023-05-09T02:23:10;101903.41;;;9.85;52.43
31082;BME280;17737;52.586;13.284;2023-05-09T02:25:39;101902.84;;;9.82;52.32
31082;BME280;17737;52.586;13.284;2023-05-09T02:28:08;101902.84;;;9.82;52.06
31082;BME280;17737;52.586;13.284;2023-05-09T02:30:39;101905.94;;;9.77;52.06
31082;BME280;17737;52.586;13.284;2023-05-09T02:33:11;101913.69;;;9.70;52.16
31082;BME280;17737;52.586;13.284;2023-05-09T02:35:41;101920.44;;;9.86;51.60
31082;BME280;17737;52.586;13.284;2023-05-09T02:38:11;101915.41;;;9.72;52.11
31082;BME280;17737;52.586;13.284;2023-05-09T02:40:42;101911.69;;;9.63;51.99
31082;BME280;17737;52.586;13.284;2023-05-09T02:43:10;101918.63;;;9.65;51.56
31082;BME280;17737;52.586;13.284;2023-05-09T02:45:40;101902.59;;;9.64;51.76
31082;BME280;17737;52.586;13.284;2023-05-09T02:48:10;101910.03;;;9.72;51.51
31082;BME280;17737;52.586;13.284;2023-05-09T02:50:38;101900.94;;;9.73;51.00
31082;BME280;17737;52.586;13.284;2023-05-09T02:53:08;101905.03;;;9.67;51.38
31082;BME280;17737;52.586;13.284;2023-05-09T02:55:36;101903.59;;;9.63;51.68
31082;BME280;17737;52.586;13.284;2023-05-09T02:58:04;101906.75;;;9.68;51.50
31082;BME280;17737;52.586;13.284;2023-05-09T03:00:40;101907.84;;;9.65;51.00
31082;BME280;17737;52.586;13.284;2023-05-09T03:03:08;101908.44;;;9.69;51.45
31082;BME280;17737;52.586;13.284;2023-05-09T03:05:38;101901.63;;;9.65;51.54
31082;BME280;17737;52.586;13.284;2023-05-09T03:08:06;101899.47;;;9.59;50.92
31082;BME280;17737;52.586;13.284;2023-05-09T03:10:34;101894.22;;;9.57;51.42
31082;BME280;17737;52.586;13.284;2023-05-09T03:13:02;101899.59;;;9.57;51.20
31082;BME280;17737;52.586;13.284;2023-05-09T03:15:30;101890.28;;;9.61;51.16
31082;BME280;17737;52.586;13.284;2023-05-09T03:17:58;101889.13;;;9.54;51.21
31082;BME280;17737;52.586;13.284;2023-05-09T03:20:28;101888.97;;;9.56;51.37
31082;BME280;17737;52.586;13.284;2023-05-09T03:22:55;101887.16;;;9.56;51.23
31082;BME280;17737;52.586;13.284;2023-05-09T03:25:24;101893.50;;;9.55;51.51
31082;BME280;17737;52.586;13.284;2023-05-09T03:27:52;101893.50;;;9.55;51.18
31082;BME280;17737;52.586;13.284;2023-05-09T03:30:20;101887.00;;;9.58;51.46
31082;BME280;17737;52.586;13.284;2023-05-09T03:32:48;101880.63;;;9.59;51.34
31082;BME280;17737;52.586;13.284;2023-05-09T03:35:16;101882.22;;;9.61;51.08
31082;BME280;17737;52.586;13.284;2023-05-09T03:37:46;101873.56;;;9.58;51.87
31082;BME280;17737;52.586;13.284;2023-05-09T03:40:14;101884.16;;;9.50;51.92
31082;BME280;17737;52.586;13.284;2023-05-09T03:42:42;101882.59;;;9.57;51.57
31082;BME280;17737;52.586;13.284;2023-05-09T03:45:10;101879.53;;;9.61;51.77
31082;BME280;17737;52.586;13.284;2023-05-09T03:47:38;101880.63;;;9.59;51.84
31082;BME280;17737;52.586;13.284;2023-05-09T03:50:07;101878.66;;;9.61;52.10
31082;BME280;17737;52.586;13.284;2023-05-09T03:52:36;101882.81;;;9.65;51.71
31082;BME280;17737;52.586;13.284;2023-05-09T03:55:07;101876.91;;;10.11;51.30
31082;BME280;17737;52.586;13.284;2023-05-09T03:57:35;101874.00;;;11.00;49.33
31082;BME280;17737;52.586;13.284;2023-05-09T04:00:04;101881.69;;;11.50;47.78
31082;BME280;17737;52.586;13.284;2023-05-09T04:02:33;101880.66;;;11.70;46.95
31082;BME280;17737;52.586;13.284;2023-05-09T04:05:02;101877.00;;;11.89;46.20
31082;BME280;17737;52.586;13.284;2023-05-09T04:07:30;101872.00;;;11.94;46.12
31082;BME280;17737;52.586;13.284;2023-05-09T04:09:58;101878.19;;;12.31;45.67
31082;BME280;17737;52.586;13.284;2023-05-09T04:12:28;101880.31;;;12.37;44.86
31082;BME280;17737;52.586;13.284;2023-05-09T04:14:56;101875.50;;;12.84;43.91
31082;BME280;17737;52.586;13.284;2023-05-09T04:17:24;101874.03;;;12.89;43.98
31082;BME280;17737;52.586;13.284;2023-05-09T04:19:52;101876.38;;;12.84;43.66
31082;BME280;17737;52.586;13.284;2023-05-09T04:22:20;101873.97;;;12.81;43.86
31082;BME280;17737;52.586;13.284;2023-05-09T04:24:48;101866.38;;;13.20;43.40
31082;BME280;17737;52.586;13.284;2023-05-09T04:27:16;101874.66;;;13.18;43.33
31082;BME280;17737;52.586;13.284;2023-05-09T04:29:45;101873.06;;;13.59;42.32
31082;BME280;17737;52.586;13.284;2023-05-09T04:32:14;101872.28;;;13.41;42.73
31082;BME280;17737;52.586;13.284;2023-05-09T04:34:43;101876.09;;;13.56;42.31
31082;BME280;17737;52.586;13.284;2023-05-09T04:37:10;101868.31;;;13.53;42.38
31082;BME280;17737;52.586;13.284;2023-05-09T04:39:39;101866.38;;;13.71;41.77
31082;BME280;17737;52.586;13.284;2023-05-09T04:42:07;101865.41;;;13.80;42.20
31082;BME280;17737;52.586;13.284;2023-05-09T04:44:35;101870.44;;;14.09;41.48
31082;BME280;17737;52.586;13.284;2023-05-09T04:47:04;101872.41;;;14.32;41.04
31082;BME280;17737;52.586;13.284;2023-05-09T04:49:32;101871.19;;;13.85;41.84
31082;BME280;17737;52.586;13.284;2023-05-09T04:52:00;101864.78;;;14.28;41.47
31082;BME280;17737;52.586;13.284;2023-05-09T04:54:28;101865.66;;;14.03;41.70
31082;BME280;17737;52.586;13.284;2023-05-09T04:56:55;101859.72;;;14.49;40.84
31082;BME280;17737;52.586;13.284;2023-05-09T04:59:42;101861.97;;;14.62;40.22
31082;BME280;17737;52.586;13.284;2023-05-09T05:02:11;101860.75;;;14.48;40.70
31082;BME280;17737;52.586;13.284;2023-05-09T05:04:39;101858.53;;;13.60;42.13
31082;BME280;17737;52.586;13.284;2023-05-09T05:07:07;101866.72;;;12.47;44.99
31082;BME280;17737;52.586;13.284;2023-05-09T05:09:35;101869.22;;;12.13;46.44
31082;BME280;17737;52.586;13.284;2023-05-09T05:12:04;101868.63;;;12.89;44.91
31082;BME280;17737;52.586;13.284;2023-05-09T05:14:35;101862.91;;;13.95;42.27
31082;BME280;17737;52.586;13.284;2023-05-09T05:17:03;101867.38;;;14.04;41.72
31082;BME280;17737;52.586;13.284;2023-05-09T05:19:32;101861.81;;;13.72;42.02
31082;BME280;17737;52.586;13.284;2023-05-09T05:22:00;101868.41;;;12.65;44.48
31082;BME280;17737;52.586;13.284;2023-05-09T05:24:28;101864.66;;;12.14;46.03
31082;BME280;17737;52.586;13.284;2023-05-09T05:26:56;101853.41;;;11.91;46.75
31082;BME280;17737;52.586;13.284;2023-05-09T05:29:24;101852.13;;;11.68;47.37
31082;BME280;17737;52.586;13.284;2023-05-09T05:31:52;101850.72;;;11.45;48.04
31082;BME280;17737;52.586;13.284;2023-05-09T05:34:21;101843.59;;;11.53;47.92
31082;BME280;17737;52.586;13.284;2023-05-09T05:36:50;101839.94;;;11.45;48.22
31082;BME280;17737;52.586;13.284;2023-05-09T05:39:18;101847.72;;;11.48;47.90
31082;BME280;17737;52.586;13.284;2023-05-09T05:41:46;101835.00;;;11.40;47.90
31082;BME280;17737;52.586;13.284;2023-05-09T05:44:14;101833.53;;;11.46;47.89
31082;BME280;17737;52.586;13.284;2023-05-09T05:46:42;101833.09;;;11.50;47.72
31082;BME280;17737;52.586;13.284;2023-05-09T05:49:10;101839.16;;;11.62;47.80
31082;BME280;17737;52.586;13.284;2023-05-09T05:51:38;101829.91;;;11.74;47.82
31082;BME280;17737;52.586;13.284;2023-05-09T05:54:07;101835.63;;;11.71;47.44
31082;BME280;17737;52.586;13.284;2023-05-09T05:56:36;101819.41;;;11.71;47.31
31082;BME280;17737;52.586;13.284;2023-05-09T05:59:04;101821.81;;;11.74;47.51
31082;BME280;17737;52.586;13.284;2023-05-09T06:01:32;101818.22;;;11.83;46.77
31082;BME280;17737;52.586;13.284;2023-05-09T06:04:00;101812.50;;;11.86;46.33
31082;BME280;17737;52.586;13.284;2023-05-09T06:06:28;101808.88;;;11.77;46.79
31082;BME280;17737;52.586;13.284;2023-05-09T06:08:56;101814.59;;;11.92;46.78
31082;BME280;17737;52.586;13.284;2023-05-09T06:11:26;101802.97;;;12.09;46.49
31082;BME280;17737;52.586;13.284;2023-05-09T06:13:53;101802.91;;;12.19;46.05
31082;BME280;17737;52.586;13.284;2023-05-09T06:16:21;101809.16;;;12.19;45.78
31082;BME280;17737;52.586;13.284;2023-05-09T06:18:50;101800.38;;;12.17;45.81
31082;BME280;17737;52.586;13.284;2023-05-09T06:21:21;101789.56;;;12.17;46.00
31082;BME280;17737;52.586;13.284;2023-05-09T06:23:49;101791.56;;;12.33;45.65
31082;BME280;17737;52.586;13.284;2023-05-09T06:26:38;101783.56;;;12.41;45.67
31082;BME280;17737;52.586;13.284;2023-05-09T06:29:06;101779.75;;;12.34;45.47
31082;BME280;17737;52.586;13.284;2023-05-09T06:31:35;101777.66;;;12.45;45.10
31082;BME280;17737;52.586;13.284;2023-05-09T06:34:04;101782.69;;;12.40;44.85
31082;BME280;17737;52.586;13.284;2023-05-09T06:36:32;101778.75;;;12.52;45.14
31082;BME280;17737;52.586;13.284;2023-05-09T06:39:00;101774.56;;;12.40;44.98
31082;BME280;17737;52.586;13.284;2023-05-09T06:41:28;101772.81;;;12.49;44.58
31082;BME280;17737;52.586;13.284;2023-05-09T06:43:58;101756.41;;;12.50;44.41
31082;BME280;17737;52.586;13.284;2023-05-09T06:46:27;101761.66;;;12.52;44.13
31082;BME280;17737;52.586;13.284;2023-05-09T06:48:55;101759.06;;;12.60;44.14
31082;BME280;17737;52.586;13.284;2023-05-09T06:51:23;101756.78;;;12.73;43.34
31082;BME280;17737;52.586;13.284;2023-05-09T06:53:52;101753.53;;;12.69;43.48
31082;BME280;17737;52.586;13.284;2023-05-09T06:56:20;101744.31;;;12.80;43.55
31082;BME280;17737;52.586;13.284;2023-05-09T06:58:48;101755.72;;;12.91;43.43
31082;BME280;17737;52.586;13.284;2023-05-09T07:01:18;101745.94;;;12.90;43.10
31082;BME280;17737;52.586;13.284;2023-05-09T07:03:46;101733.72;;;12.86;43.50
31082;BME280;17737;52.586;13.284;2023-05-09T07:06:14;101724.16;;;13.00;43.60
31082;BME280;17737;52.586;13.284;2023-05-09T07:08:42;101719.78;;;12.99;43.24
31082;BME280;17737;52.586;13.284;2023-05-09T07:11:10;101720.22;;;12.94;43.14
31082;BME280;17737;52.586;13.284;2023-05-09T07:13:38;101705.22;;;13.00;43.56
31082;BME280;17737;52.586;13.284;2023-05-09T07:16:06;101709.66;;;13.35;43.45
31082;BME280;17737;52.586;13.284;2023-05-09T07:18:35;101708.31;;;13.39;43.50
31082;BME280;17737;52.586;13.284;2023-05-09T07:21:03;101713.91;;;13.45;43.01
31082;BME280;17737;52.586;13.284;2023-05-09T07:23:31;101704.66;;;13.64;42.24
31082;BME280;17737;52.586;13.284;2023-05-09T07:25:59;101699.38;;;13.46;41.72
31082;BME280;17737;52.586;13.284;2023-05-09T07:28:27;101701.41;;;13.44;42.23
31082;BME280;17737;52.586;13.284;2023-05-09T07:30:55;101707.72;;;13.61;42.38
31082;BME280;17737;52.586;13.284;2023-05-09T07:33:23;101708.13;;;13.74;42.53
31082;BME280;17737;52.586;13.284;2023-05-09T07:35:53;101704.38;;;13.75;42.34
31082;BME280;17737;52.586;13.284;2023-05-09T07:38:21;101703.00;;;13.71;42.51
31082;BME280;17737;52.586;13.284;2023-05-09T07:40:49;101699.94;;;13.66;42.83
31082;BME280;17737;52.586;13.284;2023-05-09T07:43:18;101694.22;;;13.77;42.51
31082;BME280;17737;52.586;13.284;2023-05-09T07:45:46;101692.38;;;13.93;42.33
31082;BME280;17737;52.586;13.284;2023-05-09T07:48:14;101687.31;;;14.06;41.15
31082;BME280;17737;52.586;13.284;2023-05-09T07:50:42;101681.06;;;14.14;40.15
31082;BME280;17737;52.586;13.284;2023-05-09T07:53:12;101684.09;;;14.03;40.51
31082;BME280;17737;52.586;13.284;2023-05-09T07:55:40;101684.47;;;14.08;40.12
31082;BME280;17737;52.586;13.284;2023-05-09T07:58:09;101679.19;;;13.98;40.41
31082;BME280;17737;52.586;13.284;2023-05-09T08:00:37;101679.22;;;14.14;40.32
31082;BME280;17737;52.586;13.284;2023-05-09T08:03:05;101672.44;;;14.10;40.04
31082;BME280;17737;52.586;13.284;2023-05-09T08:05:34;101669.19;;;14.15;39.81
31082;BME280;17737;52.586;13.284;2023-05-09T08:08:02;101675.63;;;14.22;39.87
31082;BME280;17737;52.586;13.284;2023-05-09T08:10:31;101668.91;;;14.34;39.37
31082;BME280;17737;52.586;13.284;2023-05-09T08:12:59;101676.03;;;14.43;38.88
31082;BME280;17737;52.586;13.284;2023-05-09T08:15:27;101667.22;;;14.33;38.54
31082;BME280;17737;52.586;13.284;2023-05-09T08:17:56;101665.50;;;14.48;38.42
31082;BME280;17737;52.586;13.284;2023-05-09T08:20:24;101673.47;;;14.50;37.56
31082;BME280;17737;52.586;13.284;2023-05-09T08:22:52;101668.19;;;14.64;37.78
31082;BME280;17737;52.586;13.284;2023-05-09T08:25:20;101667.81;;;14.75;36.29
31082;BME280;17737;52.586;13.284;2023-05-09T08:27:49;101661.25;;;14.62;36.97
31082;BME280;17737;52.586;13.284;2023-05-09T08:30:18;101659.00;;;14.73;36.92
31082;BME280;17737;52.586;13.284;2023-05-09T08:32:46;101656.09;;;14.91;37.12
31082;BME280;17737;52.586;13.284;2023-05-09T08:35:15;101647.91;;;14.99;36.93
31082;BME280;17737;52.586;13.284;2023-05-09T08:37:43;101655.22;;;14.90;35.98
31082;BME280;17737;52.586;13.284;2023-05-09T08:40:13;101654.38;;;14.90;35.50
31082;BME280;17737;52.586;13.284;2023-05-09T08:42:43;101648.78;;;14.99;35.45
31082;BME280;17737;52.586;13.284;2023-05-09T08:45:15;101641.31;;;15.01;35.35
31082;BME280;17737;52.586;13.284;2023-05-09T08:47:49;101636.16;;;15.14;35.28
31082;BME280;17737;52.586;13.284;2023-05-09T08:50:18;101647.94;;;15.29;35.27
31082;BME280;17737;52.586;13.284;2023-05-09T08:52:47;101635.78;;;15.17;34.88
31082;BME280;17737;52.586;13.284;2023-05-09T08:55:15;101640.16;;;15.26;35.66
31082;BME280;17737;52.586;13.284;2023-05-09T08:57:43;101627.81;;;15.16;35.94
31082;BME280;17737;52.586;13.284;2023-05-09T09:00:15;101628.25;;;15.35;35.48
31082;BME280;17737;52.586;13.284;2023-05-09T09:02:46;101621.06;;;15.50;35.54
31082;BME280;17737;52.586;13.284;2023-05-09T09:05:15;101626.25;;;15.60;35.16
31082;BME280;17737;52.586;13.284;2023-05-09T09:08:06;101619.00;;;15.75;35.37
31082;BME280;17737;52.586;13.284;2023-05-09T09:10:38;101618.44;;;15.88;35.30
31082;BME280;17737;52.586;13.284;2023-05-09T09:13:09;101610.31;;;16.02;35.31
31082;BME280;17737;52.586;13.284;2023-05-09T09:15:42;101614.75;;;16.18;35.49
31082;BME280;17737;52.586;13.284;2023-05-09T09:18:17;101620.09;;;15.89;35.28
31082;BME280;17737;52.586;13.284;2023-05-09T09:20:52;101613.66;;;15.90;35.24
31082;BME280;17737;52.586;13.284;2023-05-09T09:23:25;101618.47;;;16.02;35.49
31082;BME280;17737;52.586;13.284;2023-05-09T09:25:58;101613.69;;;15.82;35.61
31082;BME280;17737;52.586;13.284;2023-05-09T09:28:28;101609.81;;;15.99;34.99
31082;BME280;17737;52.586;13.284;2023-05-09T09:30:57;101612.50;;;15.84;35.09
31082;BME280;17737;52.586;13.284;2023-05-09T09:33:43;101609.59;;;15.86;35.50
31082;BME280;17737;52.586;13.284;2023-05-09T09:36:29;101602.13;;;15.88;34.61
31082;BME280;17737;52.586;13.284;2023-05-09T09:39:00;101593.88;;;15.96;34.34
31082;BME280;17737;52.586;13.284;2023-05-09T09:41:30;101585.91;;;16.17;34.09
31082;BME280;17737;52.586;13.284;2023-05-09T09:44:05;101590.69;;;16.29;34.67
31082;BME280;17737;52.586;13.284;2023-05-09T09:46:41;101576.09;;;16.45;34.82
31082;BME280;17737;52.586;13.284;2023-05-09T09:49:12;101571.72;;;16.58;33.06
31082;BME280;17737;52.586;13.284;2023-05-09T09:51:41;101573.97;;;16.55;32.87
31082;BME280;17737;52.586;13.284;2023-05-09T09:54:11;101567.50;;;16.56;32.71
31082;BME280;17737;52.586;13.284;2023-05-09T09:56:43;101575.84;;;16.69;33.08
31082;BME280;17737;52.586;13.284;2023-05-09T09:59:13;101568.44;;;16.77;33.14
31082;BME280;17737;52.586;13.284;2023-05-09T10:01:55;101561.94;;;16.93;33.48
31082;BME280;17737;52.586;13.284;2023-05-09T10:04:33;101552.56;;;16.96;33.18
31082;BME280;17737;52.586;13.284;2023-05-09T10:07:03;101560.38;;;17.20;33.50
31082;BME280;17737;52.586;13.284;2023-05-09T10:09:34;101555.41;;;17.23;32.46
31082;BME280;17737;52.586;13.284;2023-05-09T10:12:04;101553.06;;;17.20;31.34
31082;BME280;17737;52.586;13.284;2023-05-09T10:14:35;101548.75;;;17.11;31.66
31082;BME280;17737;52.586;13.284;2023-05-09T10:17:06;101538.44;;;17.21;32.11
31082;BME280;17737;52.586;13.284;2023-05-09T10:19:37;101541.69;;;17.31;31.44
31082;BME280;17737;52.586;13.284;2023-05-09T10:22:13;101536.19;;;17.10;30.72
31082;BME280;17737;52.586;13.284;2023-05-09T10:24:46;101534.25;;;17.04;30.33
31082;BME280;17737;52.586;13.284;2023-05-09T10:27:21;101526.28;;;17.24;30.54
31082;BME280;17737;52.586;13.284;2023-05-09T10:29:56;101526.63;;;17.14;30.70
31082;BME280;17737;52.586;13.284;2023-05-09T10:32:38;101517.94;;;17.25;31.50
31082;BME280;17737;52.586;13.284;2023-05-09T10:35:15;101513.41;;;17.32;31.35
31082;BME280;17737;52.586;13.284;2023-05-09T10:37:45;101510.53;;;17.55;31.57
31082;BME280;17737;52.586;13.284;2023-05-09T10:40:14;101516.03;;;17.82;30.83
31082;BME280;17737;52.586;13.284;2023-05-09T10:42:42;101503.81;;;17.78;31.36
31082;BME280;17737;52.586;13.284;2023-05-09T10:45:11;101514.94;;;18.05;30.75
31082;BME280;17737;52.586;13.284;2023-05-09T10:47:42;101509.13;;;17.86;31.22
31082;BME280;17737;52.586;13.284;2023-05-09T10:50:12;101502.66;;;17.66;31.18
31082;BME280;17737;52.586;13.284;2023-05-09T10:53:06;101501.16;;;17.64;31.23
31082;BME280;17737;52.586;13.284;2023-05-09T10:55:38;101498.88;;;17.88;31.63
31082;BME280;17737;52.586;13.284;2023-05-09T10:58:23;101489.34;;;18.06;31.35
31082;BME280;17737;52.586;13.284;2023-05-09T11:00:54;101499.56;;;18.25;30.90
31082;BME280;17737;52.586;13.284;2023-05-09T11:03:25;101501.19;;;17.91;30.54
31082;BME280;17737;52.586;13.284;2023-05-09T11:05:55;101481.66;;;17.88;30.61
31082;BME280;17737;52.586;13.284;2023-05-09T11:08:25;101480.91;;;18.01;30.14
31082;BME280;17737;52.586;13.284;2023-05-09T11:10:55;101474.16;;;17.97;30.03
31082;BME280;17737;52.586;13.284;2023-05-09T11:13:29;101472.47;;;17.89;29.99
31082;BME280;17737;52.586;13.284;2023-05-09T11:16:07;101473.09;;;17.63;30.84
31082;BME280;17737;52.586;13.284;2023-05-09T11:18:52;101459.19;;;17.58;30.74
31082;BME280;17737;52.586;13.284;2023-05-09T11:21:20;101466.50;;;17.79;30.62
31082;BME280;17737;52.586;13.284;2023-05-09T11:23:48;101462.97;;;18.13;30.20
31082;BME280;17737;52.586;13.284;2023-05-09T11:26:21;101455.09;;;17.97;30.40
31082;BME280;17737;52.586;13.284;2023-05-09T11:28:58;101450.69;;;17.96;30.01
31082;BME280;17737;52.586;13.284;2023-05-09T11:31:28;101452.63;;;18.08;29.54
31082;BME280;17737;52.586;13.284;2023-05-09T11:34:00;101437.50;;;18.33;28.69
31082;BME280;17737;52.586;13.284;2023-05-09T11:36:30;101425.03;;;18.18;29.26
31082;BME280;17737;52.586;13.284;2023-05-09T11:39:04;101431.19;;;17.99;29.73
31082;BME280;17737;52.586;13.284;2023-05-09T11:41:41;101427.97;;;18.16;30.09
31082;BME280;17737;52.586;13.284;2023-05-09T11:44:17;101404.16;;;18.04;30.71
31082;BME280;17737;52.586;13.284;2023-05-09T11:46:47;101423.09;;;18.12;29.81
31082;BME280;17737;52.586;13.284;2023-05-09T11:49:17;101413.84;;;18.06;29.81
31082;BME280;17737;52.586;13.284;2023-05-09T11:51:46;101405.34;;;18.29;29.33
31082;BME280;17737;52.586;13.284;2023-05-09T11:54:15;101412.81;;;18.48;29.34
31082;BME280;17737;52.586;13.284;2023-05-09T11:56:43;101405.47;;;18.42;29.79
31082;BME280;17737;52.586;13.284;2023-05-09T11:59:12;101409.78;;;18.36;29.60
31082;BME280;17737;52.586;13.284;2023-05-09T12:01:41;101391.69;;;18.29;29.97
31082;BME280;17737;52.586;13.284;2023-05-09T12:04:09;101386.25;;;18.29;29.68
31082;BME280;17737;52.586;13.284;2023-05-09T12:06:38;101385.03;;;18.38;29.84
31082;BME280;17737;52.586;13.284;2023-05-09T12:09:08;101370.34;;;18.39;29.76
31082;BME280;17737;52.586;13.284;2023-05-09T12:11:36;101364.03;;;18.32;29.86
31082;BME280;17737;52.586;13.284;2023-05-09T12:14:05;101358.91;;;18.56;30.08
31082;BME280;17737;52.586;13.284;2023-05-09T12:16:33;101351.09;;;18.47;29.69
31082;BME280;17737;52.586;13.284;2023-05-09T12:19:01;101353.50;;;18.76;29.65
31082;BME280;17737;52.586;13.284;2023-05-09T12:21:30;101338.56;;;18.72;28.95
31082;BME280;17737;52.586;13.284;2023-05-09T12:24:03;101338.78;;;18.77;28.76
31082;BME280;17737;52.586;13.284;2023-05-09T12:26:32;101347.03;;;19.03;28.94
31082;BME280;17737;52.586;13.284;2023-05-09T12:29:01;101345.31;;;19.02;29.29
31082;BME280;17737;52.586;13.284;2023-05-09T12:31:30;101337.13;;;19.02;29.34
31082;BME280;17737;52.586;13.284;2023-05-09T12:33:58;101334.00;;;19.12;29.24
31082;BME280;17737;52.586;13.284;2023-05-09T12:36:27;101327.28;;;19.14;29.01
31082;BME280;17737;52.586;13.284;2023-05-09T12:39:07;101327.47;;;18.99;29.51
31082;BME280;17737;52.586;13.284;2023-05-09T12:41:42;101320.13;;;19.06;28.97
31082;BME280;17737;52.586;13.284;2023-05-09T12:44:26;101325.59;;;19.13;29.63
31082;BME280;17737;52.586;13.284;2023-05-09T12:46:56;101324.13;;;18.97;28.67
31082;BME280;17737;52.586;13.284;2023-05-09T12:49:26;101320.75;;;19.02;28.83
31082;BME280;17737;52.586;13.284;2023-05-09T12:51:56;101318.25;;;19.14;28.93
31082;BME280;17737;52.586;13.284;2023-05-09T12:54:29;101328.13;;;19.34;29.06
31082;BME280;17737;52.586;13.284;2023-05-09T12:56:57;101307.94;;;19.16;29.38